createdAt,value
2023-04-06T00:00:10.107Z,84.28
2023-04-06T00:02:37.474Z,84.10
2023-04-06T00:05:04.389Z,84.58
2023-04-06T00:07:31.218Z,84.57
2023-04-06T00:09:58.030Z,85.72
2023-04-06T00:12:24.732Z,85.91
2023-04-06T00:14:51.567Z,85.58
2023-04-06T00:17:18.669Z,85.45
2023-04-06T00:19:45.318Z,85.58
2023-04-06T00:22:11.997Z,86.55
2023-04-06T00:24:38.967Z,86.57
2023-04-06T00:27:05.868Z,86.42
2023-04-06T00:29:32.486Z,87.20
2023-04-06T00:31:59.126Z,87.42
2023-04-06T00:34:25.823Z,88.20
2023-04-06T00:36:52.476Z,87.75
2023-04-06T00:39:20.979Z,88.80
2023-04-06T00:41:51.922Z,87.68
2023-04-06T00:44:18.939Z,87.89
2023-04-06T00:46:46.141Z,87.45
2023-04-06T00:49:12.869Z,87.93
2023-04-06T00:51:39.542Z,88.62
2023-04-06T00:54:06.603Z,87.88
2023-04-06T00:56:33.651Z,87.76
2023-04-06T00:59:00.567Z,87.19
2023-04-06T01:01:27.430Z,86.93
2023-04-06T01:03:55.350Z,87.35
2023-04-06T01:06:22.152Z,87.05
2023-04-06T01:08:48.711Z,86.73
2023-04-06T01:11:15.465Z,86.48
2023-04-06T01:13:42.131Z,84.80
2023-04-06T01:16:08.848Z,83.46
2023-04-06T01:18:36.296Z,83.23
2023-04-06T01:21:02.974Z,83.44
2023-04-06T01:23:29.716Z,84.02
2023-04-06T01:25:56.666Z,83.31
2023-04-06T01:28:23.360Z,83.43
2023-04-06T01:30:50.674Z,83.41
2023-04-06T01:33:17.291Z,83.30
2023-04-06T01:35:44.116Z,83.53
2023-04-06T01:38:10.909Z,83.63
2023-04-06T01:40:37.482Z,83.89
2023-04-06T01:43:04.139Z,84.28
2023-04-06T01:45:30.724Z,83.69
2023-04-06T01:47:57.335Z,83.97
2023-04-06T01:50:24.339Z,83.41
2023-04-06T01:52:51.443Z,82.89
2023-04-06T01:55:18.023Z,83.07
2023-04-06T01:57:44.571Z,83.03
2023-04-06T02:00:11.946Z,83.25
2023-04-06T02:02:38.776Z,83.26
2023-04-06T02:05:05.836Z,82.84
2023-04-06T02:07:32.458Z,82.67
2023-04-06T02:09:59.054Z,82.97
2023-04-06T02:12:25.615Z,83.25
2023-04-06T02:14:52.385Z,83.83
2023-04-06T02:17:19.261Z,83.54
2023-04-06T02:19:46.039Z,83.51
2023-04-06T02:22:12.995Z,83.70
2023-04-06T02:24:39.639Z,83.32
2023-04-06T02:27:07.380Z,82.24
2023-04-06T02:29:34.078Z,81.62
2023-04-06T02:32:00.759Z,81.66
2023-04-06T02:34:27.427Z,82.04
2023-04-06T02:36:54.252Z,81.95
2023-04-06T02:39:20.853Z,82.30
2023-04-06T02:41:47.397Z,81.40
2023-04-06T02:44:13.994Z,81.58
2023-04-06T02:46:40.821Z,82.45
2023-04-06T02:49:07.832Z,83.19
2023-04-06T02:51:34.697Z,83.52
2023-04-06T02:54:01.318Z,83.42
2023-04-06T02:56:28.095Z,82.59
2023-04-06T02:58:54.756Z,83.02
2023-04-06T03:01:21.378Z,83.67
2023-04-06T03:03:48.190Z,83.64
2023-04-06T03:06:15.068Z,83.73
2023-04-06T03:08:41.740Z,83.09
2023-04-06T03:11:08.304Z,82.69
2023-04-06T03:13:34.942Z,82.30
2023-04-06T03:16:01.995Z,82.47
2023-04-06T03:18:28.690Z,82.64
2023-04-06T03:20:55.406Z,82.78
2023-04-06T03:23:22.317Z,83.21
2023-04-06T03:25:49.081Z,83.43
2023-04-06T03:28:16.192Z,83.87
2023-04-06T03:30:43.128Z,83.58
2023-04-06T03:33:09.713Z,83.75
2023-04-06T03:35:38.111Z,83.30
2023-04-06T03:38:05.714Z,83.14
2023-04-06T03:40:32.800Z,83.51
2023-04-06T03:43:00.561Z,83.34
2023-04-06T03:45:27.152Z,83.35
2023-04-06T03:47:53.745Z,83.12
2023-04-06T03:50:20.594Z,83.35
2023-04-06T03:52:47.162Z,83.80
2023-04-06T03:55:13.879Z,83.92
2023-04-06T03:57:40.791Z,83.91
2023-04-06T04:00:08.088Z,83.55
2023-04-06T04:02:34.759Z,83.61
2023-04-06T04:05:01.791Z,84.00
2023-04-06T04:07:28.415Z,84.28
2023-04-06T04:09:55.088Z,84.24
2023-04-06T04:12:21.743Z,83.95
2023-04-06T04:14:48.437Z,83.75
2023-04-06T04:17:14.989Z,83.91
2023-04-06T04:19:41.647Z,83.99
2023-04-06T04:22:08.256Z,83.46
2023-04-06T04:24:35.002Z,82.89
2023-04-06T04:27:06.010Z,82.40
2023-04-06T04:29:32.628Z,82.13
2023-04-06T04:31:59.251Z,81.76
2023-04-06T04:34:26.375Z,80.58
2023-04-06T04:36:56.143Z,80.47
2023-04-06T04:39:22.748Z,80.60
2023-04-06T04:41:49.242Z,80.86
2023-04-06T04:44:16.066Z,80.88
2023-04-06T04:46:42.759Z,80.04
2023-04-06T04:49:09.648Z,79.86
2023-04-06T04:51:37.657Z,79.94
2023-04-06T04:54:04.484Z,79.23
2023-04-06T04:56:31.177Z,79.36
2023-04-06T04:58:57.941Z,79.22
2023-04-06T05:01:24.822Z,78.37
2023-04-06T05:03:51.758Z,77.34
2023-04-06T05:06:20.230Z,77.04
2023-04-06T05:08:46.857Z,77.06
2023-04-06T05:11:13.589Z,76.71
2023-04-06T05:13:40.279Z,76.01
2023-04-06T05:16:07.161Z,75.85
2023-04-06T05:18:33.857Z,75.13
2023-04-06T05:21:00.771Z,74.54
2023-04-06T05:23:27.620Z,73.78
2023-04-06T05:25:54.473Z,73.77
2023-04-06T05:28:21.334Z,73.53
2023-04-06T05:30:48.048Z,73.11
2023-04-06T05:33:14.856Z,73.27
2023-04-06T05:35:41.539Z,72.00
2023-04-06T05:38:11.401Z,71.61
2023-04-06T05:40:39.629Z,71.29
2023-04-06T05:43:06.252Z,69.99
2023-04-06T05:45:32.970Z,70.01
2023-04-06T05:47:59.641Z,69.76
2023-04-06T05:50:26.404Z,69.20
2023-04-06T05:52:53.178Z,68.89
2023-04-06T05:55:19.931Z,67.68
2023-04-06T05:57:46.536Z,66.60
2023-04-06T06:00:13.853Z,66.08
2023-04-06T06:02:41.063Z,65.88
2023-04-06T06:05:08.399Z,65.34
2023-04-06T06:07:35.164Z,65.75
2023-04-06T06:10:01.785Z,65.42
2023-04-06T06:12:28.545Z,65.44
2023-04-06T06:14:56.574Z,65.10
2023-04-06T06:17:23.343Z,64.53
2023-04-06T06:19:50.201Z,64.75
2023-04-06T06:22:17.246Z,63.57
2023-04-06T06:24:43.931Z,63.77
2023-04-06T06:27:10.573Z,63.08
2023-04-06T06:29:37.172Z,61.96
2023-04-06T06:32:03.910Z,62.32
2023-04-06T06:34:30.988Z,62.08
2023-04-06T06:36:57.760Z,61.67
2023-04-06T06:39:24.437Z,62.02
2023-04-06T06:41:51.102Z,62.64
2023-04-06T06:44:17.901Z,61.33
2023-04-06T06:46:44.733Z,60.54
2023-04-06T06:49:13.650Z,60.50
2023-04-06T06:51:40.503Z,60.72
2023-04-06T06:54:07.835Z,60.68
2023-04-06T06:56:36.976Z,61.42
2023-04-06T06:59:03.669Z,61.99
2023-04-06T07:01:30.506Z,61.24
2023-04-06T07:03:57.127Z,59.87
2023-04-06T07:06:23.869Z,60.00
2023-04-06T07:08:50.468Z,59.29
2023-04-06T07:11:17.132Z,58.53
2023-04-06T07:13:44.516Z,57.84
2023-04-06T07:16:11.070Z,57.31
2023-04-06T07:18:37.764Z,55.89
2023-04-06T07:21:04.812Z,55.32
2023-04-06T07:23:31.459Z,54.43
2023-04-06T07:25:58.187Z,54.65
2023-04-06T07:28:25.146Z,54.62
2023-04-06T07:30:52.265Z,53.60
2023-04-06T07:33:18.846Z,53.06
2023-04-06T07:35:46.434Z,52.99
2023-04-06T07:38:13.146Z,53.38
2023-04-06T07:40:40.063Z,53.83
2023-04-06T07:43:06.817Z,53.30
2023-04-06T07:45:33.487Z,52.49
2023-04-06T07:48:00.254Z,52.33
2023-04-06T07:50:27.081Z,51.81
2023-04-06T07:52:53.898Z,51.31
2023-04-06T07:55:20.611Z,49.99
2023-04-06T07:57:47.223Z,49.53
2023-04-06T08:00:14.894Z,49.73
2023-04-06T08:02:41.833Z,49.50
2023-04-06T08:05:09.034Z,48.21
2023-04-06T08:07:36.707Z,47.19
2023-04-06T08:10:03.778Z,45.72
2023-04-06T08:12:30.643Z,45.33
2023-04-06T08:14:58.053Z,44.52
2023-04-06T08:17:24.762Z,44.78
2023-04-06T08:19:51.668Z,44.52
2023-04-06T08:22:18.925Z,44.23
2023-04-06T08:24:45.788Z,43.84
2023-04-06T08:27:12.449Z,43.61
2023-04-06T08:29:38.927Z,43.20
2023-04-06T08:32:06.209Z,43.58
2023-04-06T08:34:36.149Z,43.16
2023-04-06T08:37:02.939Z,42.23
2023-04-06T08:39:31.830Z,41.58
2023-04-06T08:42:00.832Z,41.67
2023-04-06T08:44:28.258Z,42.04
2023-04-06T08:46:55.487Z,42.56
2023-04-06T08:49:22.733Z,42.32
2023-04-06T08:51:50.740Z,41.42
2023-04-06T08:54:17.546Z,41.08
2023-04-06T08:56:44.516Z,40.71
2023-04-06T08:59:12.028Z,40.25
2023-04-06T09:01:42.416Z,40.13
2023-04-06T09:04:13.446Z,40.05
2023-04-06T09:06:41.750Z,40.06
2023-04-06T09:09:08.943Z,40.55
2023-04-06T09:11:47.118Z,39.61
2023-04-06T09:14:13.856Z,40.21
2023-04-06T09:16:42.898Z,39.42
2023-04-06T09:19:10.821Z,39.82
2023-04-06T09:21:38.346Z,39.02
2023-04-06T09:24:06.032Z,39.87
2023-04-06T09:26:35.162Z,40.44
2023-04-06T09:29:02.668Z,39.42
2023-04-06T09:31:34.094Z,40.60
2023-04-06T09:34:01.961Z,40.16
2023-04-06T09:36:42.462Z,38.46
2023-04-06T09:39:09.389Z,37.25
2023-04-06T09:41:36.968Z,37.22
2023-04-06T09:44:11.751Z,37.04
2023-04-06T09:46:55.896Z,38.67
2023-04-06T09:49:28.900Z,37.85
2023-04-06T09:52:00.209Z,39.93
2023-04-06T09:54:31.017Z,38.92
2023-04-06T09:57:08.482Z,39.31
2023-04-06T09:59:57.325Z,38.32
2023-04-06T10:02:42.618Z,38.63
2023-04-06T10:05:14.425Z,40.01
2023-04-06T10:07:56.819Z,38.95
2023-04-06T10:10:27.239Z,38.85
2023-04-06T10:12:55.745Z,38.08
2023-04-06T10:15:23.256Z,37.37
2023-04-06T10:17:50.411Z,38.17
2023-04-06T10:20:51.447Z,39.65
2023-04-06T10:23:30.813Z,39.02
2023-04-06T10:25:59.457Z,38.11
2023-04-06T10:28:26.997Z,37.58
2023-04-06T10:31:01.166Z,37.53
2023-04-06T10:33:28.943Z,37.58
2023-04-06T10:35:58.883Z,37.30
2023-04-06T10:38:41.896Z,38.08
2023-04-06T10:41:14.160Z,37.89
2023-04-06T10:43:42.764Z,38.38
2023-04-06T10:46:10.818Z,38.06
2023-04-06T10:48:46.672Z,38.10
2023-04-06T10:51:14.995Z,38.97
2023-04-06T10:53:47.818Z,38.72
2023-04-06T10:56:16.794Z,37.58
2023-04-06T10:58:48.028Z,37.66
2023-04-06T11:01:19.379Z,37.27
2023-04-06T11:03:47.120Z,36.45
2023-04-06T11:06:21.711Z,37.40
2023-04-06T11:08:49.054Z,37.62
2023-04-06T11:11:19.538Z,38.54
2023-04-06T11:13:51.701Z,37.07
2023-04-06T11:16:23.865Z,37.76
2023-04-06T11:18:57.273Z,37.71
2023-04-06T11:21:44.620Z,37.01
2023-04-06T11:24:15.321Z,36.34
2023-04-06T11:26:45.231Z,35.92
2023-04-06T11:29:13.442Z,36.49
2023-04-06T11:31:47.805Z,37.53
2023-04-06T11:34:18.160Z,38.05
2023-04-06T11:36:46.558Z,37.09
2023-04-06T11:39:27.655Z,38.88
2023-04-06T11:42:05.566Z,36.91
2023-04-06T11:44:40.190Z,36.48
2023-04-06T11:47:11.258Z,36.77
2023-04-06T11:49:39.601Z,35.37
2023-04-06T11:52:16.529Z,37.23
2023-04-06T11:54:43.175Z,37.29
2023-04-06T11:57:10.417Z,36.81
2023-04-06T11:59:37.456Z,37.12
2023-04-06T12:02:05.080Z,37.18
2023-04-06T12:04:32.193Z,35.59
2023-04-06T12:06:59.503Z,35.41
2023-04-06T12:09:26.600Z,36.74
2023-04-06T12:11:53.270Z,34.81
2023-04-06T12:14:21.521Z,35.52
2023-04-06T12:16:48.262Z,36.14
2023-04-06T12:19:15.162Z,36.59
2023-04-06T12:21:41.902Z,36.17
2023-04-06T12:24:09.380Z,36.19
2023-04-06T12:26:37.197Z,35.95
2023-04-06T12:29:08.261Z,34.92
2023-04-06T12:31:40.120Z,35.03
2023-04-06T12:34:07.508Z,35.85
2023-04-06T12:36:34.694Z,36.19
2023-04-06T12:39:02.029Z,37.68
2023-04-06T12:41:29.680Z,37.03
2023-04-06T12:43:56.721Z,36.28
2023-04-06T12:46:24.651Z,36.56
2023-04-06T12:48:54.631Z,38.18
2023-04-06T12:51:21.530Z,36.95
2023-04-06T12:53:48.163Z,36.54
2023-04-06T12:56:19.264Z,37.48
2023-04-06T12:58:46.625Z,37.27
2023-04-06T13:01:16.318Z,37.68
2023-04-06T13:03:43.343Z,37.80
2023-04-06T13:06:11.089Z,39.26
2023-04-06T13:08:39.404Z,38.89
2023-04-06T13:11:09.218Z,38.63
2023-04-06T13:13:36.371Z,38.77
2023-04-06T13:16:05.880Z,38.13
2023-04-06T13:18:33.924Z,37.16
2023-04-06T13:21:03.426Z,37.36
2023-04-06T13:23:30.339Z,38.44
2023-04-06T13:26:07.745Z,38.05
2023-04-06T13:28:36.459Z,39.73
2023-04-06T13:31:03.531Z,38.47
2023-04-06T13:33:31.929Z,38.69
2023-04-06T13:35:59.855Z,40.00
2023-04-06T13:38:26.618Z,39.68
2023-04-06T13:40:53.588Z,38.50
2023-04-06T13:43:22.811Z,38.86
2023-04-06T13:45:56.812Z,39.04
2023-04-06T13:48:23.548Z,37.56
2023-04-06T13:50:50.730Z,37.66
2023-04-06T13:53:17.442Z,38.15
2023-04-06T13:55:44.117Z,38.02
2023-04-06T13:58:10.986Z,38.71
2023-04-06T14:00:38.141Z,38.75
2023-04-06T14:03:05.140Z,38.66
2023-04-06T14:05:33.332Z,39.75
2023-04-06T14:07:59.907Z,39.26
2023-04-06T14:10:28.482Z,39.41
2023-04-06T14:12:55.606Z,38.57
2023-04-06T14:15:23.104Z,40.02
2023-04-06T14:17:50.277Z,40.49
2023-04-06T14:20:17.139Z,39.91
2023-04-06T14:22:44.386Z,40.93
2023-04-06T14:25:12.392Z,40.36
2023-04-06T14:27:39.727Z,41.34
2023-04-06T14:30:07.115Z,40.25
2023-04-06T14:32:33.946Z,40.98
2023-04-06T14:35:00.603Z,40.51
2023-04-06T14:37:27.398Z,41.55
2023-04-06T14:39:54.170Z,40.79
2023-04-06T14:42:20.853Z,41.84
2023-04-06T14:44:47.565Z,40.97
2023-04-06T14:47:16.803Z,41.49
2023-04-06T14:49:43.370Z,40.45
2023-04-06T14:52:09.962Z,42.43
2023-04-06T14:54:36.547Z,43.55
2023-04-06T14:57:03.243Z,42.36
2023-04-06T14:59:30.337Z,42.45
2023-04-06T15:01:57.236Z,41.40
2023-04-06T15:04:23.989Z,41.92
2023-04-06T15:06:50.784Z,42.41
2023-04-06T15:09:17.481Z,42.93
2023-04-06T15:11:44.158Z,41.79
2023-04-06T15:14:10.762Z,42.97
2023-04-06T15:16:37.420Z,42.57
2023-04-06T15:19:04.080Z,44.24
2023-04-06T15:21:32.126Z,42.35
2023-04-06T15:23:59.022Z,44.45
2023-04-06T15:26:27.389Z,42.49
2023-04-06T15:28:54.041Z,42.64
2023-04-06T15:31:36.938Z,43.08
2023-04-06T15:34:09.419Z,42.95
2023-04-06T15:36:36.694Z,42.34
2023-04-06T15:39:04.483Z,43.38
2023-04-06T15:41:31.892Z,43.12
2023-04-06T15:43:58.696Z,42.74
2023-04-06T15:46:28.348Z,42.12
2023-04-06T15:48:55.740Z,42.16
2023-04-06T15:51:22.535Z,42.32
2023-04-06T15:53:49.141Z,43.69
2023-04-06T15:56:15.964Z,42.99
2023-04-06T15:58:42.567Z,42.38
2023-04-06T16:01:14.406Z,42.73
2023-04-06T16:03:41.166Z,43.97
2023-04-06T16:06:09.190Z,42.43
2023-04-06T16:08:36.852Z,42.82
2023-04-06T16:11:04.052Z,43.24
2023-04-06T16:13:31.120Z,42.44
2023-04-06T16:15:57.764Z,42.78
2023-04-06T16:18:24.573Z,42.93
2023-04-06T16:20:51.303Z,43.97
2023-04-06T16:23:18.013Z,43.25
2023-04-06T16:25:44.927Z,43.27
2023-04-06T16:28:11.779Z,42.91
2023-04-06T16:30:40.852Z,42.95
2023-04-06T16:33:09.445Z,43.21
2023-04-06T16:35:36.421Z,42.93
2023-04-06T16:38:02.997Z,43.88
2023-04-06T16:40:29.760Z,43.43
2023-04-06T16:42:56.335Z,43.59
2023-04-06T16:45:22.884Z,43.82
2023-04-06T16:47:50.714Z,44.26
2023-04-06T16:50:17.871Z,44.02
2023-04-06T16:52:45.207Z,44.23
2023-04-06T16:55:12.141Z,45.08
2023-04-06T16:57:38.857Z,44.28
2023-04-06T17:00:08.417Z,45.27
2023-04-06T17:02:37.020Z,44.99
2023-04-06T17:05:04.503Z,45.23
2023-04-06T17:07:36.288Z,45.56
2023-04-06T17:10:03.894Z,45.99
2023-04-06T17:12:30.676Z,46.22
2023-04-06T17:14:57.439Z,46.89
2023-04-06T17:17:24.204Z,46.99
2023-04-06T17:19:50.852Z,47.71
2023-04-06T17:22:21.042Z,48.00
2023-04-06T17:24:48.644Z,46.75
2023-04-06T17:27:15.905Z,47.08
2023-04-06T17:29:42.611Z,48.07
2023-04-06T17:32:09.391Z,49.21
2023-04-06T17:34:35.887Z,49.63
2023-04-06T17:37:02.869Z,50.15
2023-04-06T17:39:29.362Z,50.36
2023-04-06T17:41:56.117Z,50.62
2023-04-06T17:44:22.748Z,50.70
2023-04-06T17:46:49.461Z,51.03
2023-04-06T17:49:16.563Z,54.02
2023-04-06T17:51:43.299Z,54.03
2023-04-06T17:54:09.992Z,54.72
2023-04-06T17:56:36.662Z,53.53
2023-04-06T17:59:03.483Z,53.55
2023-04-06T18:01:31.745Z,52.65
2023-04-06T18:03:58.570Z,52.69
2023-04-06T18:06:26.409Z,53.65
2023-04-06T18:08:53.316Z,53.52
2023-04-06T18:11:21.990Z,53.87
2023-04-06T18:13:49.116Z,54.30
2023-04-06T18:16:17.742Z,54.72
2023-04-06T18:18:44.639Z,55.79
2023-04-06T18:21:11.717Z,55.90
2023-04-06T18:23:38.629Z,55.38
2023-04-06T18:26:06.490Z,55.59
2023-04-06T18:28:33.784Z,54.39
2023-04-06T18:31:00.696Z,52.85
2023-04-06T18:33:30.219Z,53.04
2023-04-06T18:35:57.077Z,52.87
2023-04-06T18:38:24.467Z,53.03
2023-04-06T18:40:51.492Z,53.08
2023-04-06T18:43:18.230Z,53.29
2023-04-06T18:45:45.111Z,54.02
2023-04-06T18:48:12.080Z,54.97
2023-04-06T18:50:38.741Z,55.78
2023-04-06T18:53:05.827Z,55.63
2023-04-06T18:55:33.741Z,56.40
2023-04-06T18:58:00.879Z,56.55
2023-04-06T19:00:27.729Z,55.94
2023-04-06T19:02:54.592Z,56.20
2023-04-06T19:05:22.490Z,56.15
2023-04-06T19:07:52.799Z,55.34
2023-04-06T19:10:19.985Z,55.71
2023-04-06T19:12:47.760Z,56.11
2023-04-06T19:15:14.850Z,55.58
2023-04-06T19:17:41.749Z,55.71
2023-04-06T19:20:09.169Z,55.34
2023-04-06T19:22:36.921Z,56.18
2023-04-06T19:25:05.170Z,55.75
2023-04-06T19:27:31.791Z,55.84
2023-04-06T19:29:59.595Z,58.03
2023-04-06T19:32:26.969Z,57.92
2023-04-06T19:34:54.061Z,57.03
2023-04-06T19:37:20.856Z,56.94
2023-04-06T19:39:47.973Z,57.43
2023-04-06T19:42:21.665Z,57.37
2023-04-06T19:44:48.873Z,57.34
2023-04-06T19:47:15.585Z,57.61
2023-04-06T19:49:42.290Z,57.65
2023-04-06T19:52:10.290Z,59.77
2023-04-06T19:54:38.531Z,62.38
2023-04-06T19:57:05.675Z,64.66
2023-04-06T19:59:34.702Z,65.48
2023-04-06T20:02:01.665Z,66.19
2023-04-06T20:04:28.605Z,67.80
2023-04-06T20:06:55.612Z,68.39
2023-04-06T20:09:23.009Z,68.23
2023-04-06T20:11:49.709Z,69.05
2023-04-06T20:14:18.089Z,70.35
2023-04-06T20:16:44.723Z,70.34
2023-04-06T20:19:11.482Z,71.24
2023-04-06T20:21:39.643Z,72.03
2023-04-06T20:24:06.375Z,71.77
2023-04-06T20:26:32.943Z,72.55
2023-04-06T20:28:59.542Z,72.82
2023-04-06T20:31:27.480Z,73.72
2023-04-06T20:33:54.615Z,73.70
2023-04-06T20:36:22.326Z,73.38
2023-04-06T20:38:48.957Z,73.44
2023-04-06T20:41:16.569Z,73.62
2023-04-06T20:43:43.324Z,74.33
2023-04-06T20:46:16.035Z,73.17
2023-04-06T20:48:42.647Z,73.32
2023-04-06T20:51:09.289Z,72.17
2023-04-06T20:53:35.878Z,72.15
2023-04-06T20:56:03.440Z,73.60
2023-04-06T20:58:30.177Z,73.67
2023-04-06T21:00:56.779Z,73.58
2023-04-06T21:03:24.525Z,73.01
2023-04-06T21:05:52.946Z,74.53
2023-04-06T21:08:19.715Z,73.47
2023-04-06T21:10:46.319Z,73.34
2023-04-06T21:13:12.945Z,74.18
2023-04-06T21:15:39.749Z,74.55
2023-04-06T21:18:06.509Z,74.71
2023-04-06T21:20:33.191Z,74.56
2023-04-06T21:22:59.769Z,74.67
2023-04-06T21:25:26.368Z,73.84
2023-04-06T21:27:53.174Z,74.12
2023-04-06T21:30:19.719Z,73.73
2023-04-06T21:32:46.391Z,74.23
2023-04-06T21:35:13.109Z,74.72
2023-04-06T21:37:39.936Z,74.80
2023-04-06T21:40:07.309Z,75.67
2023-04-06T21:42:33.880Z,75.08
2023-04-06T21:45:00.452Z,74.58
2023-04-06T21:47:27.082Z,74.67
2023-04-06T21:49:53.679Z,74.93
2023-04-06T21:52:20.274Z,75.32
2023-04-06T21:54:46.877Z,75.99
2023-04-06T21:57:14.071Z,75.92
2023-04-06T21:59:40.756Z,76.37
2023-04-06T22:02:07.421Z,77.52
2023-04-06T22:04:34.271Z,77.06
2023-04-06T22:07:01.068Z,78.17
2023-04-06T22:09:27.776Z,77.91
2023-04-06T22:11:54.422Z,76.66
2023-04-06T22:14:21.400Z,76.25
2023-04-06T22:16:48.425Z,75.01
2023-04-06T22:19:15.183Z,74.54
2023-04-06T22:21:41.778Z,75.78
2023-04-06T22:24:08.374Z,77.04
2023-04-06T22:26:35.333Z,77.24
2023-04-06T22:29:01.946Z,78.16
2023-04-06T22:31:28.610Z,78.24
2023-04-06T22:33:55.283Z,78.37
2023-04-06T22:36:21.892Z,78.29
2023-04-06T22:38:51.018Z,77.74
2023-04-06T22:41:17.712Z,76.92
2023-04-06T22:43:44.353Z,76.79
2023-04-06T22:46:10.938Z,75.92
2023-04-06T22:48:37.620Z,75.52
2023-04-06T22:51:04.467Z,74.76
2023-04-06T22:53:31.160Z,75.08
2023-04-06T22:55:57.738Z,75.69
2023-04-06T22:58:24.442Z,75.42
2023-04-06T23:00:51.175Z,75.69
2023-04-06T23:03:18.030Z,75.69
2023-04-06T23:05:45.263Z,76.02
2023-04-06T23:08:11.836Z,76.18
2023-04-06T23:10:41.941Z,75.58
2023-04-06T23:13:09.720Z,76.25
2023-04-06T23:15:36.555Z,76.12
2023-04-06T23:18:03.227Z,76.59
2023-04-06T23:20:30.164Z,74.32
2023-04-06T23:22:56.749Z,73.38
2023-04-06T23:25:23.535Z,72.34
2023-04-06T23:27:50.121Z,73.36
2023-04-06T23:30:16.930Z,73.45
2023-04-06T23:32:43.709Z,73.41
2023-04-06T23:35:10.837Z,73.85
2023-04-06T23:37:37.518Z,74.08
2023-04-06T23:40:04.816Z,75.53
2023-04-06T23:42:31.583Z,76.25
2023-04-06T23:44:59.823Z,76.60
2023-04-06T23:47:26.592Z,76.59
2023-04-06T23:49:53.251Z,74.70
2023-04-06T23:52:20.178Z,74.54
2023-04-06T23:54:46.848Z,76.60
2023-04-06T23:57:13.491Z,75.96
2023-04-06T23:59:40.150Z,75.13
